createdAt,value
2018-08-19T00:00:49.679Z,10.43
2018-08-19T00:03:18.151Z,10.00
2018-08-19T00:05:46.550Z,7.57
2018-08-19T00:08:14.969Z,9.70
2018-08-19T00:11:00.463Z,10.87
2018-08-19T00:13:28.954Z,11.00
2018-08-19T00:15:57.358Z,10.43
2018-08-19T00:18:25.771Z,10.10
2018-08-19T00:20:54.183Z,10.77
2018-08-19T00:23:22.809Z,10.70
2018-08-19T00:25:51.532Z,8.03
2018-08-19T00:28:20.711Z,9.80
2018-08-19T00:30:49.109Z,8.43
2018-08-19T00:33:17.533Z,14.93
2018-08-19T00:35:45.919Z,10.87
2018-08-19T00:38:15.298Z,13.73
2018-08-19T00:40:43.976Z,12.63
2018-08-19T00:43:12.387Z,10.40
2018-08-19T00:45:40.788Z,14.20
2018-08-19T00:48:10.107Z,9.50
2018-08-19T00:50:38.860Z,15.40
2018-08-19T00:53:08.822Z,14.97
2018-08-19T00:55:42.863Z,8.80
2018-08-19T00:58:17.099Z,14.30
2018-08-19T01:00:45.502Z,12.50
2018-08-19T01:03:14.066Z,13.30
2018-08-19T01:05:42.555Z,16.03
2018-08-19T01:08:12.459Z,15.43
2018-08-19T01:10:41.012Z,10.60
2018-08-19T01:13:10.552Z,14.17
2018-08-19T01:15:39.057Z,12.70
2018-08-19T01:18:07.452Z,13.53
2018-08-19T01:20:35.843Z,10.90
2018-08-19T01:23:04.522Z,12.67
2018-08-19T01:25:33.237Z,13.13
2018-08-19T01:28:01.723Z,15.00
2018-08-19T01:30:30.127Z,13.13
2018-08-19T01:32:58.524Z,14.70
2018-08-19T01:35:31.278Z,21.43
2018-08-19T01:37:59.786Z,11.87
2018-08-19T01:40:28.183Z,13.77
2018-08-19T01:42:56.595Z,10.57
2018-08-19T01:45:25.212Z,11.93
2018-08-19T01:47:53.705Z,15.73
2018-08-19T01:50:22.126Z,13.90
2018-08-19T01:52:50.675Z,11.77
2018-08-19T01:55:19.167Z,14.53
2018-08-19T01:57:48.772Z,12.23
2018-08-19T02:00:17.864Z,17.60
2018-08-19T02:02:52.637Z,15.67
2018-08-19T02:05:21.492Z,14.37
2018-08-19T02:07:51.345Z,17.03
2018-08-19T02:10:20.875Z,13.10
2018-08-19T02:12:51.212Z,15.20
2018-08-19T02:15:20.150Z,15.50
2018-08-19T02:17:53.169Z,15.43
2018-08-19T02:20:24.959Z,17.40
2018-08-19T02:22:59.164Z,11.73
2018-08-19T02:25:32.296Z,12.43
2018-08-19T02:28:01.027Z,13.20
2018-08-19T02:30:29.444Z,12.53
2018-08-19T02:32:57.844Z,16.00
2018-08-19T02:35:26.254Z,12.93
2018-08-19T02:37:54.663Z,18.80
2018-08-19T02:40:28.640Z,15.07
2018-08-19T02:42:57.036Z,13.93
2018-08-19T02:45:25.435Z,12.50
2018-08-19T02:47:53.857Z,15.53
2018-08-19T02:50:22.272Z,16.47
2018-08-19T02:52:50.679Z,14.00
2018-08-19T02:55:19.090Z,12.27
2018-08-19T02:57:47.473Z,11.67
2018-08-19T03:00:17.467Z,12.80
2018-08-19T03:02:45.888Z,15.30
2018-08-19T03:05:14.898Z,11.67
2018-08-19T03:07:43.479Z,11.60
2018-08-19T03:10:12.944Z,12.90
2018-08-19T03:12:41.724Z,14.23
2018-08-19T03:15:10.848Z,16.57
2018-08-19T03:17:39.527Z,12.93
2018-08-19T03:20:09.472Z,11.80
2018-08-19T03:22:37.874Z,16.23
2018-08-19T03:25:06.781Z,14.67
2018-08-19T03:27:35.292Z,15.20
2018-08-19T03:30:08.207Z,13.80
2018-08-19T03:32:37.543Z,14.70
2018-08-19T03:35:11.483Z,13.27
2018-08-19T03:37:39.875Z,13.53
2018-08-19T03:40:08.283Z,17.80
2018-08-19T03:42:36.692Z,13.87
2018-08-19T03:45:14.163Z,13.57
2018-08-19T03:47:42.575Z,9.83
2018-08-19T03:50:16.449Z,10.83
2018-08-19T03:52:45.067Z,12.43
2018-08-19T03:55:18.677Z,11.77
2018-08-19T03:57:47.275Z,17.10
2018-08-19T04:00:17.103Z,14.87
2018-08-19T04:02:45.513Z,10.53
2018-08-19T04:05:13.905Z,10.57
2018-08-19T04:07:42.708Z,12.67
2018-08-19T04:10:11.391Z,11.50
2018-08-19T04:12:39.807Z,14.50
2018-08-19T04:15:08.314Z,13.97
2018-08-19T04:17:36.694Z,13.27
2018-08-19T04:20:05.320Z,14.40
2018-08-19T04:22:33.697Z,15.07
2018-08-19T04:25:02.077Z,15.00
2018-08-19T04:27:30.475Z,10.40
2018-08-19T04:29:58.855Z,11.50
2018-08-19T04:32:31.882Z,10.70
2018-08-19T04:35:01.549Z,12.27
2018-08-19T04:37:30.146Z,12.07
2018-08-19T04:39:58.610Z,12.00
2018-08-19T04:42:27.146Z,15.00
2018-08-19T04:44:55.415Z,12.90
2018-08-19T04:47:27.751Z,14.77
2018-08-19T04:49:56.143Z,10.53
2018-08-19T04:52:25.016Z,12.27
2018-08-19T04:54:54.575Z,12.03
2018-08-19T04:57:23.350Z,12.63
2018-08-19T04:59:52.715Z,11.20
2018-08-19T05:02:21.519Z,10.47
2018-08-19T05:04:51.171Z,11.73
2018-08-19T05:07:19.547Z,12.90
2018-08-19T05:09:48.093Z,15.27
2018-08-19T05:12:16.717Z,13.30
2018-08-19T05:14:45.493Z,13.23
2018-08-19T05:17:13.911Z,14.80
2018-08-19T05:19:42.347Z,16.30
2018-08-19T05:22:13.763Z,11.77
2018-08-19T05:24:42.952Z,15.67
2018-08-19T05:27:11.367Z,15.77
2018-08-19T05:29:39.752Z,14.17
2018-08-19T05:32:11.572Z,15.37
2018-08-19T05:34:40.776Z,15.90
2018-08-19T05:37:09.253Z,14.67
2018-08-19T05:39:38.981Z,13.00
2018-08-19T05:42:10.081Z,15.17
2018-08-19T05:44:39.679Z,15.40
2018-08-19T05:47:09.270Z,12.83
2018-08-19T05:49:39.634Z,14.77
2018-08-19T05:52:13.377Z,12.03
2018-08-19T05:54:47.349Z,14.97
2018-08-19T05:57:15.903Z,11.73
2018-08-19T05:59:44.794Z,11.90
2018-08-19T06:02:13.256Z,12.50
2018-08-19T06:04:41.754Z,12.03
2018-08-19T06:07:10.150Z,11.70
2018-08-19T06:09:38.535Z,12.07
2018-08-19T06:12:06.948Z,11.13
2018-08-19T06:14:35.336Z,11.93
2018-08-19T06:17:04.204Z,9.30
2018-08-19T06:19:33.226Z,10.23
2018-08-19T06:22:01.787Z,12.33
2018-08-19T06:24:30.039Z,9.77
2018-08-19T06:26:58.816Z,10.67
2018-08-19T06:29:37.107Z,11.33
2018-08-19T06:32:05.731Z,10.43
2018-08-19T06:34:34.191Z,9.37
2018-08-19T06:37:02.545Z,12.37
2018-08-19T06:39:30.987Z,13.93
2018-08-19T06:41:59.440Z,11.43
2018-08-19T06:44:28.049Z,16.67
2018-08-19T06:46:56.715Z,10.43
2018-08-19T06:49:25.108Z,10.43
2018-08-19T06:51:53.926Z,9.73
2018-08-19T06:54:23.597Z,9.20
2018-08-19T06:56:54.859Z,8.27
2018-08-19T06:59:23.271Z,9.77
2018-08-19T07:01:51.661Z,7.30
2018-08-19T07:04:20.048Z,8.07
2018-08-19T07:06:48.443Z,10.33
2018-08-19T07:09:16.820Z,8.03
2018-08-19T07:12:04.388Z,11.13
2018-08-19T07:14:32.952Z,10.70
2018-08-19T07:17:01.290Z,11.30
2018-08-19T07:19:29.704Z,11.17
2018-08-19T07:22:03.406Z,9.03
2018-08-19T07:24:32.032Z,10.40
2018-08-19T07:27:00.415Z,12.07
2018-08-19T07:29:29.799Z,10.73
2018-08-19T07:31:58.335Z,12.60
2018-08-19T07:34:26.787Z,9.97
2018-08-19T07:36:56.368Z,11.90
2018-08-19T07:39:24.952Z,10.53
2018-08-19T07:41:53.340Z,11.53
2018-08-19T07:44:21.728Z,12.33
2018-08-19T07:46:50.114Z,14.77
2018-08-19T07:49:18.672Z,14.80
2018-08-19T07:51:47.098Z,10.33
2018-08-19T07:54:15.592Z,8.93
2018-08-19T07:56:43.977Z,12.70
2018-08-19T07:59:13.986Z,12.43
2018-08-19T08:01:42.385Z,10.90
2018-08-19T08:04:10.984Z,12.37
2018-08-19T08:06:39.482Z,16.40
2018-08-19T08:09:09.194Z,13.37
2018-08-19T08:11:37.611Z,10.40
2018-08-19T08:14:06.115Z,9.97
2018-08-19T08:16:39.323Z,13.63
2018-08-19T08:19:07.694Z,12.90
2018-08-19T08:21:36.195Z,11.83
2018-08-19T08:24:04.662Z,13.60
2018-08-19T08:26:33.647Z,9.53
2018-08-19T08:29:03.902Z,8.87
2018-08-19T08:31:33.435Z,10.47
2018-08-19T08:34:01.827Z,10.63
2018-08-19T08:36:30.213Z,13.83
2018-08-19T08:38:58.608Z,12.93
2018-08-19T08:41:27.228Z,11.93
2018-08-19T08:43:55.720Z,12.70
2018-08-19T08:46:24.130Z,11.50
2018-08-19T08:48:52.555Z,14.07
2018-08-19T08:51:20.962Z,13.37
2018-08-19T08:53:49.414Z,13.90
2018-08-19T08:56:18.101Z,14.47
2018-08-19T08:58:46.484Z,11.50
2018-08-19T09:01:15.127Z,10.57
2018-08-19T09:03:43.820Z,13.27
2018-08-19T09:06:18.208Z,14.40
2018-08-19T09:08:46.599Z,12.30
2018-08-19T09:11:15.753Z,13.90
2018-08-19T09:13:44.207Z,13.07
2018-08-19T09:16:12.559Z,16.47
2018-08-19T09:18:42.046Z,14.60
2018-08-19T09:21:10.856Z,16.07
2018-08-19T09:23:39.347Z,12.60
2018-08-19T09:26:07.748Z,13.83
2018-08-19T09:28:36.148Z,17.23
2018-08-19T09:31:04.587Z,16.63
2018-08-19T09:33:33.183Z,14.83
2018-08-19T09:36:01.692Z,18.23
2018-08-19T09:38:30.089Z,14.07
2018-08-19T09:40:58.483Z,14.97
2018-08-19T09:43:26.889Z,16.60
2018-08-19T09:45:55.370Z,12.80
2018-08-19T09:48:23.772Z,14.70
2018-08-19T09:50:52.228Z,13.70
2018-08-19T09:53:20.638Z,15.37
2018-08-19T09:55:54.626Z,13.83
2018-08-19T09:58:23.231Z,18.73
2018-08-19T10:00:57.477Z,16.07
2018-08-19T10:03:25.881Z,14.00
2018-08-19T10:05:54.301Z,16.57
2018-08-19T10:08:23.258Z,14.80
2018-08-19T10:10:51.863Z,18.53
2018-08-19T10:13:20.250Z,18.43
2018-08-19T10:15:48.695Z,17.00
2018-08-19T10:18:17.119Z,16.63
2018-08-19T10:20:50.839Z,18.23
2018-08-19T10:23:22.650Z,20.03
2018-08-19T10:25:51.342Z,22.40
2018-08-19T10:28:19.959Z,20.37
2018-08-19T10:30:54.076Z,23.63
2018-08-19T10:33:22.472Z,16.47
2018-08-19T10:35:51.308Z,18.20
2018-08-19T10:38:19.968Z,18.70
2018-08-19T10:40:54.242Z,19.43
2018-08-19T10:43:22.883Z,17.30
2018-08-19T10:45:51.474Z,20.47
2018-08-19T10:48:19.890Z,18.00
2018-08-19T10:50:48.326Z,22.57
2018-08-19T10:53:22.172Z,20.47
2018-08-19T10:55:50.527Z,17.70
2018-08-19T10:58:19.178Z,22.63
2018-08-19T11:00:50.705Z,18.23
2018-08-19T11:03:20.265Z,19.03
2018-08-19T11:05:50.388Z,20.43
2018-08-19T11:08:18.745Z,18.37
2018-08-19T11:10:47.144Z,17.07
2018-08-19T11:13:18.772Z,22.20
2018-08-19T11:15:49.468Z,19.57
2018-08-19T11:18:24.056Z,17.73
2018-08-19T11:20:55.661Z,18.03
2018-08-19T11:23:25.292Z,19.50
2018-08-19T11:25:54.681Z,21.37
2018-08-19T11:28:28.964Z,19.57
2018-08-19T11:30:57.635Z,18.90
2018-08-19T11:33:31.762Z,20.97
2018-08-19T11:36:00.166Z,16.90
2018-08-19T11:38:28.779Z,15.93
2018-08-19T11:40:59.022Z,20.87
2018-08-19T11:43:27.444Z,18.37
2018-08-19T11:45:56.002Z,16.30
2018-08-19T11:48:24.771Z,15.03
2018-08-19T11:50:53.206Z,14.68
2018-08-19T11:53:21.604Z,15.15
2018-08-19T11:55:50.003Z,10.98
2018-08-19T11:58:28.459Z,12.20
2018-08-19T12:01:01.843Z,13.38
2018-08-19T12:04:02.257Z,12.47
2018-08-19T12:06:31.800Z,17.42
2018-08-19T12:09:01.450Z,12.40
2018-08-19T12:11:32.229Z,12.88
2018-08-19T12:14:01.979Z,13.75
2018-08-19T12:16:30.380Z,12.73
2018-08-19T12:19:05.284Z,13.08
2018-08-19T12:21:38.103Z,13.25
2018-08-19T12:24:14.207Z,10.82
2018-08-19T12:26:43.100Z,12.07
2018-08-19T12:29:11.827Z,15.25
2018-08-19T12:31:40.237Z,11.68
2018-08-19T12:34:08.639Z,17.02
2018-08-19T12:36:37.239Z,14.63
2018-08-19T12:39:06.758Z,12.98
2018-08-19T12:41:39.711Z,14.15
2018-08-19T12:44:08.167Z,14.35
2018-08-19T12:46:36.774Z,13.80
2018-08-19T12:49:05.350Z,13.38
2018-08-19T12:51:34.033Z,12.30
2018-08-19T12:54:03.505Z,14.20
2018-08-19T12:56:32.134Z,12.88
2018-08-19T12:59:00.719Z,15.10
2018-08-19T13:01:34.152Z,12.47
2018-08-19T13:04:02.560Z,13.35
2018-08-19T13:06:30.969Z,15.23
2018-08-19T13:08:59.358Z,13.58
2018-08-19T13:11:27.843Z,14.95
2018-08-19T13:13:56.455Z,15.15
2018-08-19T13:16:24.972Z,10.98
2018-08-19T13:18:53.591Z,12.95
2018-08-19T13:21:22.180Z,12.60
2018-08-19T13:23:50.588Z,12.00
2018-08-19T13:26:19.023Z,13.53
2018-08-19T13:28:51.759Z,16.37
2018-08-19T13:31:24.515Z,16.20
2018-08-19T13:33:52.908Z,12.13
2018-08-19T13:36:21.548Z,13.25
2018-08-19T13:38:50.043Z,13.22
2018-08-19T13:41:18.487Z,11.25
2018-08-19T13:43:46.883Z,10.28
2018-08-19T13:46:15.295Z,13.20
2018-08-19T13:48:43.933Z,12.25
2018-08-19T13:51:12.432Z,12.82
2018-08-19T13:53:41.064Z,10.50
2018-08-19T13:56:09.572Z,13.65
2018-08-19T13:58:38.207Z,11.75
2018-08-19T14:01:06.772Z,14.30
2018-08-19T14:03:35.394Z,12.55
2018-08-19T14:06:03.903Z,14.10
2018-08-19T14:08:32.320Z,16.95
2018-08-19T14:11:00.727Z,13.43
2018-08-19T14:13:29.114Z,12.47
2018-08-19T14:15:57.514Z,14.60
2018-08-19T14:18:25.917Z,16.77
2018-08-19T14:20:54.290Z,13.65
2018-08-19T14:23:22.704Z,14.07
2018-08-19T14:25:51.509Z,13.05
2018-08-19T14:28:20.000Z,12.23
2018-08-19T14:30:53.512Z,13.85
2018-08-19T14:33:22.196Z,12.73
2018-08-19T14:35:50.670Z,15.15
2018-08-19T14:38:19.098Z,13.70
2018-08-19T14:40:47.494Z,13.28
2018-08-19T14:43:16.125Z,13.18
2018-08-19T14:45:44.637Z,13.38
2018-08-19T14:48:13.268Z,11.60
2018-08-19T14:50:42.231Z,11.90
2018-08-19T14:53:10.664Z,15.00
2018-08-19T14:55:39.067Z,14.05
2018-08-19T14:58:07.469Z,12.00
2018-08-19T15:00:40.888Z,12.18
2018-08-19T15:03:09.529Z,11.93
2018-08-19T15:05:38.013Z,11.38
2018-08-19T15:08:12.068Z,15.23
2018-08-19T15:10:40.552Z,11.00
2018-08-19T15:13:09.151Z,13.85
2018-08-19T15:15:37.687Z,14.20
2018-08-19T15:18:06.317Z,11.43
2018-08-19T15:20:36.144Z,12.07
2018-08-19T15:23:10.315Z,9.80
2018-08-19T15:25:38.730Z,12.05
2018-08-19T15:28:07.130Z,11.75
2018-08-19T15:30:36.798Z,11.88
2018-08-19T15:33:05.623Z,10.60
2018-08-19T15:35:34.184Z,10.00
2018-08-19T15:38:02.684Z,10.20
2018-08-19T15:40:33.319Z,12.03
2018-08-19T15:43:01.714Z,12.13
2018-08-19T15:45:30.114Z,10.58
2018-08-19T15:50:22.622Z,10.35
2018-08-19T15:52:51.165Z,9.20
2018-08-19T15:55:19.523Z,10.75
2018-08-19T15:57:47.907Z,11.33
2018-08-19T16:00:21.354Z,13.75
2018-08-19T16:02:49.755Z,14.38
2018-08-19T16:05:18.173Z,12.43
2018-08-19T16:07:46.966Z,9.50
2018-08-19T16:10:16.189Z,12.33
2018-08-19T16:12:49.486Z,11.65
2018-08-19T16:15:23.604Z,11.75
2018-08-19T16:17:53.483Z,10.00
2018-08-19T16:20:22.492Z,9.50
2018-08-19T16:22:51.632Z,13.10
2018-08-19T16:25:20.798Z,9.75
2018-08-19T16:27:49.957Z,11.03
2018-08-19T16:30:18.396Z,12.68
2018-08-19T16:32:46.795Z,10.20
2018-08-19T16:35:15.451Z,10.30
2018-08-19T16:37:44.024Z,10.03
2018-08-19T16:40:12.898Z,11.35
2018-08-19T16:42:42.236Z,13.00
2018-08-19T16:45:11.867Z,10.13
2018-08-19T16:47:40.263Z,10.93
2018-08-19T16:50:10.190Z,10.65
2018-08-19T16:52:38.531Z,11.53
2018-08-19T16:55:07.306Z,10.50
2018-08-19T16:57:35.919Z,10.10
2018-08-19T17:00:05.052Z,11.08
2018-08-19T17:02:33.521Z,13.20
2018-08-19T17:05:02.056Z,11.12
2018-08-19T17:07:30.604Z,11.10
2018-08-19T17:09:59.065Z,12.43
2018-08-19T17:12:27.391Z,12.55
2018-08-19T17:14:55.819Z,10.13
2018-08-19T17:17:24.222Z,11.83
2018-08-19T17:19:52.622Z,9.88
2018-08-19T17:22:21.313Z,11.55
2018-08-19T17:24:49.792Z,8.95
2018-08-19T17:27:18.356Z,9.25
2018-08-19T17:29:46.851Z,9.75
2018-08-19T17:32:15.250Z,11.93
2018-08-19T17:34:43.627Z,9.88
2018-08-19T17:37:12.019Z,7.90
2018-08-19T17:39:40.540Z,10.85
2018-08-19T17:42:08.843Z,10.75
2018-08-19T17:44:38.119Z,9.25
2018-08-19T17:47:06.596Z,7.85
2018-08-19T17:49:35.836Z,11.15
2018-08-19T17:52:04.223Z,11.10
2018-08-19T17:54:32.921Z,13.05
2018-08-19T17:57:02.479Z,10.32
2018-08-19T17:59:31.186Z,14.25
2018-08-19T18:01:59.590Z,9.55
2018-08-19T18:04:32.772Z,11.45
2018-08-19T18:07:01.419Z,10.90
2018-08-19T18:09:29.829Z,9.15
2018-08-19T18:12:04.279Z,10.20
2018-08-19T18:14:33.307Z,10.98
2018-08-19T18:17:02.129Z,9.95
2018-08-19T18:19:33.527Z,8.45
2018-08-19T18:22:12.311Z,11.20
2018-08-19T18:24:41.557Z,7.58
2018-08-19T18:27:09.991Z,9.95
2018-08-19T18:29:39.888Z,9.10
2018-08-19T18:32:08.309Z,10.32
2018-08-19T18:34:37.827Z,9.70
2018-08-19T18:37:06.217Z,11.50
2018-08-19T18:39:34.647Z,8.88
2018-08-19T18:42:03.031Z,11.33
2018-08-19T18:44:31.627Z,9.58
2018-08-19T18:47:00.124Z,8.73
2018-08-19T18:49:28.499Z,10.93
2018-08-19T18:51:58.445Z,9.13
2018-08-19T18:54:30.542Z,11.33
2018-08-19T18:57:01.412Z,10.55
2018-08-19T18:59:29.815Z,12.78
2018-08-19T19:01:59.800Z,8.20
2018-08-19T19:04:28.260Z,11.70
2018-08-19T19:06:56.664Z,10.28
2018-08-19T19:09:29.688Z,9.33
2018-08-19T19:11:58.135Z,10.25
2018-08-19T19:14:26.532Z,15.10
2018-08-19T19:16:54.940Z,10.70
2018-08-19T19:19:23.371Z,13.70
2018-08-19T19:21:57.476Z,15.43
2018-08-19T19:24:35.088Z,14.10
2018-08-19T19:27:03.728Z,15.80
2018-08-19T19:29:32.449Z,13.47
2018-08-19T19:32:11.250Z,15.80
2018-08-19T19:34:39.761Z,13.37
2018-08-19T19:37:08.147Z,14.03
2018-08-19T19:39:36.552Z,13.50
2018-08-19T19:42:08.627Z,12.90
2018-08-19T19:44:37.248Z,12.80
2018-08-19T19:47:07.400Z,13.20
2018-08-19T19:49:47.408Z,15.00
2018-08-19T19:52:15.775Z,14.37
2018-08-19T19:54:44.183Z,17.47
2018-08-19T19:57:12.580Z,18.00
2018-08-19T19:59:41.211Z,12.37
2018-08-19T20:02:16.272Z,11.90
2018-08-19T20:04:44.787Z,11.20
2018-08-19T20:07:13.198Z,13.47
2018-08-19T20:09:41.948Z,12.57
2018-08-19T20:12:16.219Z,13.47
2018-08-19T20:14:50.444Z,16.43
2018-08-19T20:17:19.799Z,13.63
2018-08-19T20:19:48.252Z,14.33
2018-08-19T20:22:17.748Z,14.93
2018-08-19T20:24:46.483Z,15.43
2018-08-19T20:27:15.093Z,12.47
2018-08-19T20:29:43.474Z,14.67
2018-08-19T20:32:12.129Z,15.47
2018-08-19T20:34:40.667Z,16.30
2018-08-19T20:37:09.281Z,13.50
2018-08-19T20:39:37.793Z,12.00
2018-08-19T20:42:06.539Z,12.67
2018-08-19T20:44:36.451Z,16.43
2018-08-19T20:47:06.404Z,14.60
2018-08-19T20:49:34.863Z,14.63
2018-08-19T20:52:03.452Z,15.50
2018-08-19T20:54:31.876Z,14.80
2018-08-19T20:57:00.275Z,14.60
2018-08-19T20:59:35.071Z,17.40
2018-08-19T21:02:03.880Z,16.00
2018-08-19T21:04:32.331Z,13.43
2018-08-19T21:07:02.392Z,16.57
2018-08-19T21:09:31.533Z,18.33
2018-08-19T21:12:00.072Z,16.17
2018-08-19T21:14:28.577Z,14.27
2018-08-19T21:16:57.242Z,16.93
2018-08-19T21:19:25.729Z,14.67
2018-08-19T21:21:54.303Z,13.97
2018-08-19T21:24:22.758Z,15.43
2018-08-19T21:27:01.038Z,14.47
2018-08-19T21:29:29.674Z,14.63
2018-08-19T21:31:58.072Z,12.57
2018-08-19T21:34:26.524Z,14.67
2018-08-19T21:36:54.927Z,13.20
2018-08-19T21:39:23.335Z,12.90
2018-08-19T21:41:53.212Z,16.47
2018-08-19T21:44:21.697Z,13.53
2018-08-19T21:46:50.091Z,15.17
2018-08-19T21:49:18.508Z,12.70
2018-08-19T21:51:46.914Z,12.80
2018-08-19T21:54:16.513Z,15.23
2018-08-19T21:56:45.240Z,12.40
2018-08-19T21:59:19.306Z,14.80
2018-08-19T22:01:50.639Z,15.03
2018-08-19T22:04:19.488Z,14.10
2018-08-19T22:06:47.921Z,14.80
2018-08-19T22:09:24.777Z,13.30
2018-08-19T22:11:53.850Z,12.60
2018-08-19T22:14:22.255Z,13.17
2018-08-19T22:16:55.005Z,16.23
2018-08-19T22:19:23.866Z,14.57
2018-08-19T22:21:52.254Z,13.40
2018-08-19T22:24:20.676Z,11.97
2018-08-19T22:26:49.070Z,12.70
2018-08-19T22:29:19.435Z,11.47
2018-08-19T22:31:49.555Z,11.47
2018-08-19T22:34:18.038Z,12.97
2018-08-19T22:36:46.430Z,15.53
2018-08-19T22:39:16.112Z,10.27
2018-08-19T22:41:46.039Z,15.07
2018-08-19T22:44:14.456Z,13.77
2018-08-19T22:46:42.858Z,10.47
2018-08-19T22:49:11.467Z,13.27
2018-08-19T22:51:39.952Z,10.87
2018-08-19T22:54:08.363Z,11.97
2018-08-19T22:56:36.755Z,13.37
2018-08-19T22:59:05.165Z,10.67
2018-08-19T23:01:39.092Z,11.80
2018-08-19T23:04:07.567Z,10.27
2018-08-19T23:06:35.972Z,10.70
2018-08-19T23:09:05.339Z,10.30
2018-08-19T23:11:39.153Z,9.57
2018-08-19T23:14:13.179Z,9.40
2018-08-19T23:16:41.635Z,10.30
2018-08-19T23:19:10.047Z,10.00
2018-08-19T23:21:38.464Z,8.23
2018-08-19T23:24:06.896Z,8.30
2018-08-19T23:26:35.294Z,10.37
2018-08-19T23:29:03.751Z,9.33
2018-08-19T23:38:15.716Z,10.50
2018-08-19T23:40:44.391Z,8.13
2018-08-19T23:43:12.872Z,10.50
2018-08-19T23:45:41.275Z,8.23
2018-08-19T23:48:09.660Z,8.60
2018-08-19T23:50:38.818Z,9.57
2018-08-19T23:53:08.116Z,8.70
2018-08-19T23:55:37.059Z,8.23
2018-08-19T23:58:05.456Z,11.73
